Time;durP1;ratioP1;P1;durP2;ratioP2;P2;SDS_P1;SDS_P2;PMS_P1;PMS_P2;Temp;Humidity;BMP_temperature;BMP_pressure;BME280_temperature;BME280_humidity;BME280_pressure;Samples;Min_cycle;Max_cycle;Signal;HPM_P1;HPM_P2
2021/11/24 00:01:26;;;;;;;7.57;4.53;;;8.20;99.90;;;;;;5029840;28;20213;-81
2021/11/24 00:03:52;;;;;;;5.63;4.63;;;8.20;99.90;;;;;;5031024;28;20503;-82
2021/11/24 00:06:19;;;;;;;6.10;4.03;;;8.20;99.90;;;;;;5029638;28;20214;-83
2021/11/24 00:08:48;;;;;;;4.73;4.23;;;8.20;99.90;;;;;;5010589;28;20202;-83
2021/11/24 00:11:15;;;;;;;6.43;4.23;;;8.20;99.90;;;;;;5011689;28;20282;-83
2021/11/24 00:13:42;;;;;;;5.27;3.37;;;8.20;99.90;;;;;;5011594;28;20199;-83
2021/11/24 00:16:09;;;;;;;6.37;3.47;;;8.20;99.90;;;;;;5011928;28;20221;-83
2021/11/24 00:18:37;;;;;;;6.80;3.70;;;8.20;99.90;;;;;;5011515;28;20220;-83
2021/11/24 00:21:07;;;;;;;3.13;2.80;;;8.20;99.90;;;;;;5026725;28;20219;-83
2021/11/24 00:23:34;;;;;;;3.33;2.80;;;8.20;99.90;;;;;;5028092;28;20210;-83
2021/11/24 00:26:01;;;;;;;3.30;3.00;;;8.20;99.90;;;;;;5028259;28;20207;-82
2021/11/24 00:28:28;;;;;;;4.73;3.70;;;8.20;99.90;;;;;;5029888;28;20306;-80
2021/11/24 00:30:54;;;;;;;3.97;3.40;;;8.20;99.90;;;;;;5027619;28;20217;-80
2021/11/24 00:33:21;;;;;;;7.03;4.27;;;8.10;99.90;;;;;;5028907;28;20195;-80
2021/11/24 00:35:50;;;;;;;8.03;3.90;;;8.20;99.90;;;;;;5028600;28;20218;-83
2021/11/24 00:38:17;;;;;;;3.93;3.37;;;8.20;99.90;;;;;;5028827;28;20234;-84
2021/11/24 00:40:44;;;;;;;7.33;4.33;;;8.20;99.90;;;;;;5007630;28;20215;-80
2021/11/24 00:43:11;;;;;;;6.63;4.27;;;8.20;99.90;;;;;;5008503;28;20272;-83
2021/11/24 00:45:38;;;;;;;4.67;3.60;;;8.20;99.90;;;;;;5010111;28;20195;-83
2021/11/24 00:48:06;;;;;;;4.33;3.40;;;8.20;99.90;;;;;;5014243;28;20207;-83
2021/11/24 00:50:33;;;;;;;5.00;3.80;;;8.20;99.90;;;;;;5028922;28;20234;-81
2021/11/24 00:53:01;;;;;;;4.23;3.20;;;8.20;99.90;;;;;;5029690;28;20539;-82
2021/11/24 00:55:28;;;;;;;7.87;4.57;;;8.20;99.90;;;;;;5027393;28;20227;-82
2021/11/24 00:57:56;;;;;;;4.90;3.93;;;8.20;99.90;;;;;;5029743;28;20195;-82
2021/11/24 01:00:22;;;;;;;5.57;4.20;;;8.20;99.90;;;;;;5030018;28;20214;-82
2021/11/24 01:02:49;;;;;;;12.27;4.93;;;8.20;99.90;;;;;;5030086;28;20194;-82
2021/11/24 01:05:16;;;;;;;5.77;3.90;;;8.20;99.90;;;;;;5015670;28;20207;-82
2021/11/24 01:07:44;;;;;;;6.90;4.40;;;8.20;99.90;;;;;;5009307;28;20199;-81
2021/11/24 01:10:13;;;;;;;6.03;3.97;;;8.20;99.90;;;;;;5008430;28;20200;-83
2021/11/24 01:12:42;;;;;;;6.97;4.47;;;8.20;99.90;;;;;;5010046;28;20354;-80
2021/11/24 01:15:10;;;;;;;6.67;4.70;;;8.20;99.90;;;;;;5010210;28;20210;-83
2021/11/24 01:17:36;;;;;;;5.57;4.63;;;8.20;99.90;;;;;;5025684;28;20732;-82
2021/11/24 01:20:04;;;;;;;6.13;4.67;;;8.20;99.90;;;;;;5029012;28;20222;-83
2021/11/24 01:22:31;;;;;;;9.67;5.57;;;8.20;99.90;;;;;;5030128;28;20521;-83
2021/11/24 01:24:58;;;;;;;7.23;4.93;;;8.20;99.90;;;;;;5029218;28;20211;-83
2021/11/24 01:27:27;;;;;;;6.40;4.80;;;8.20;99.90;;;;;;5009646;28;20206;-83
2021/11/24 01:29:53;;;;;;;12.73;6.10;;;8.20;99.90;;;;;;5009458;28;20195;-84
2021/11/24 01:32:20;;;;;;;9.10;5.90;;;8.20;99.90;;;;;;5012373;28;20211;-81
2021/11/24 01:34:47;;;;;;;8.30;5.70;;;8.20;99.90;;;;;;5030228;28;20203;-82
2021/11/24 01:37:14;;;;;;;6.90;5.43;;;8.20;99.90;;;;;;5030195;28;20202;-84
2021/11/24 01:39:41;;;;;;;8.70;5.10;;;8.20;99.90;;;;;;5028463;28;20505;-82
2021/11/24 01:42:07;;;;;;;7.43;4.73;;;8.20;99.90;;;;;;5029681;28;20209;-81
2021/11/24 01:44:36;;;;;;;9.80;4.90;;;8.20;99.90;;;;;;5029360;28;20204;-83
2021/11/24 01:47:05;;;;;;;9.00;5.73;;;8.20;99.90;;;;;;5023074;28;20650;-82
2021/11/24 01:49:32;;;;;;;7.10;4.97;;;8.20;99.90;;;;;;5007664;28;20196;-82
2021/11/24 01:52:00;;;;;;;7.23;4.20;;;8.20;99.90;;;;;;5007082;28;20548;-79
2021/11/24 01:54:29;;;;;;;8.83;5.20;;;8.20;99.90;;;;;;5007511;28;20203;-78
2021/11/24 01:56:56;;;;;;;6.30;4.60;;;8.20;99.90;;;;;;5006877;28;20710;-81
2021/11/24 01:59:23;;;;;;;6.53;4.93;;;8.20;99.90;;;;;;5007359;28;20253;-79
2021/11/24 02:01:52;;;;;;;5.93;4.57;;;8.20;99.90;;;;;;5007915;28;20203;-79
2021/11/24 02:04:20;;;;;;;5.40;4.50;;;8.20;99.90;;;;;;5007616;28;20871;-81
2021/11/24 02:06:48;;;;;;;6.97;4.00;;;8.20;99.90;;;;;;5007413;28;20222;-81
2021/11/24 02:09:15;;;;;;;7.57;4.93;;;8.20;99.90;;;;;;5008080;28;20481;-82
2021/11/24 02:11:43;;;;;;;6.70;4.20;;;8.20;99.90;;;;;;5007565;28;20541;-83
2021/11/24 02:14:11;;;;;;;7.43;4.60;;;8.20;99.90;;;;;;5007468;28;20215;-82
2021/11/24 02:16:41;;;;;;;8.87;4.60;;;8.30;99.90;;;;;;5007838;28;20203;-82
2021/11/24 02:19:09;;;;;;;6.17;4.60;;;8.20;99.90;;;;;;5015653;28;20222;-82
2021/11/24 02:21:38;;;;;;;7.30;4.87;;;8.20;99.90;;;;;;5026973;28;20799;-79
2021/11/24 02:24:05;;;;;;;6.50;5.10;;;8.20;99.90;;;;;;5025471;28;20666;-79
2021/11/24 02:26:32;;;;;;;5.67;4.80;;;8.30;99.90;;;;;;5025387;28;20221;-81
2021/11/24 02:28:59;;;;;;;4.67;4.00;;;8.30;99.90;;;;;;5025277;28;20205;-83
2021/11/24 02:31:28;;;;;;;8.03;5.17;;;8.20;99.90;;;;;;5028773;28;20210;-83
2021/11/24 02:33:57;;;;;;;4.27;3.87;;;8.20;99.90;;;;;;5028262;28;20214;-82
2021/11/24 02:36:25;;;;;;;3.80;3.40;;;8.20;99.90;;;;;;5028212;28;20213;-83
2021/11/24 02:38:53;;;;;;;7.97;4.03;;;8.20;99.90;;;;;;5028270;28;20223;-82
2021/11/24 02:41:20;;;;;;;5.43;3.40;;;8.20;99.90;;;;;;5027702;28;20225;-80
2021/11/24 02:43:47;;;;;;;6.43;5.00;;;8.20;99.90;;;;;;5028592;28;20207;-82
2021/11/24 02:46:14;;;;;;;7.00;4.00;;;8.20;99.90;;;;;;5027874;28;20213;-83
2021/11/24 02:48:41;;;;;;;7.10;4.27;;;8.20;99.90;;;;;;5016667;28;20242;-81
2021/11/24 02:51:08;;;;;;;5.83;4.00;;;8.20;99.90;;;;;;5009010;28;20246;-82
2021/11/24 02:53:37;;;;;;;5.17;4.20;;;8.20;99.90;;;;;;5008653;28;20211;-83
2021/11/24 02:56:06;;;;;;;6.30;4.60;;;8.20;99.90;;;;;;5023046;28;20245;-81
2021/11/24 02:58:33;;;;;;;7.47;5.27;;;8.20;99.90;;;;;;5027573;28;20195;-83
2021/11/24 03:01:03;;;;;;;12.70;6.87;;;8.20;99.90;;;;;;5027784;28;20238;-81
2021/11/24 03:03:30;;;;;;;9.97;6.00;;;8.20;99.90;;;;;;5027113;28;20218;-80
2021/11/24 03:05:57;;;;;;;8.07;6.20;;;8.20;99.90;;;;;;5027684;28;20199;-83
2021/11/24 03:08:23;;;;;;;12.43;6.63;;;8.20;99.90;;;;;;5022609;28;20206;-81
2021/11/24 03:10:50;;;;;;;10.27;7.67;;;8.20;99.90;;;;;;5007673;28;20208;-83
2021/11/24 03:13:19;;;;;;;8.77;6.40;;;8.20;99.90;;;;;;5007355;28;20203;-82
2021/11/24 03:15:45;;;;;;;8.43;6.13;;;8.20;99.90;;;;;;5017832;28;20214;-82
2021/11/24 03:18:12;;;;;;;8.13;6.47;;;8.20;99.90;;;;;;5025323;28;20499;-81
2021/11/24 03:20:39;;;;;;;11.63;7.50;;;8.20;99.90;;;;;;5025512;28;20218;-81
2021/11/24 03:23:07;;;;;;;7.97;6.93;;;8.20;99.90;;;;;;5025570;28;20211;-81
2021/11/24 03:25:34;;;;;;;10.97;6.17;;;8.20;99.90;;;;;;5028042;28;20216;-82
2021/11/24 03:28:02;;;;;;;10.90;6.70;;;8.20;99.90;;;;;;5029458;28;20246;-80
2021/11/24 03:30:31;;;;;;;8.67;6.27;;;8.20;99.90;;;;;;5030610;28;20192;-80
2021/11/24 03:32:59;;;;;;;10.63;6.90;;;8.10;99.90;;;;;;5030999;28;20902;-79
2021/11/24 03:35:27;;;;;;;8.73;6.60;;;8.20;99.90;;;;;;5030676;28;20210;-84
2021/11/24 03:37:54;;;;;;;8.37;6.10;;;8.20;99.90;;;;;;5028742;28;20207;-83
2021/11/24 03:40:23;;;;;;;9.30;6.27;;;8.20;99.90;;;;;;5028844;28;20227;-80
2021/11/24 03:42:51;;;;;;;10.43;6.77;;;8.20;99.90;;;;;;5030200;28;20210;-82
2021/11/24 03:45:20;;;;;;;8.60;6.00;;;8.20;99.90;;;;;;5029842;28;20203;-78
2021/11/24 03:47:48;;;;;;;11.63;6.80;;;8.20;99.90;;;;;;5029301;28;20214;-83
2021/11/24 03:50:16;;;;;;;8.83;6.40;;;8.20;99.90;;;;;;5030542;28;20238;-79
2021/11/24 03:52:43;;;;;;;8.20;6.23;;;8.10;99.90;;;;;;5029193;28;20355;-80
2021/11/24 03:55:11;;;;;;;8.50;6.43;;;8.10;99.90;;;;;;5029561;28;20198;-79
2021/11/24 03:57:39;;;;;;;10.13;6.47;;;8.10;99.90;;;;;;5013208;28;20238;-82
2021/11/24 04:00:08;;;;;;;7.20;6.33;;;8.20;99.90;;;;;;5009406;28;20234;-80
2021/11/24 04:02:37;;;;;;;8.23;6.57;;;8.10;99.90;;;;;;5012049;28;20252;-81
2021/11/24 04:05:07;;;;;;;10.87;6.93;;;8.20;99.90;;;;;;5030898;28;20255;-83
2021/11/24 04:07:34;;;;;;;8.33;6.50;;;8.10;99.90;;;;;;5030164;28;20195;-80
2021/11/24 04:10:02;;;;;;;10.13;7.17;;;8.10;99.90;;;;;;5022802;28;20207;-83
2021/11/24 04:12:29;;;;;;;10.00;7.30;;;8.10;99.90;;;;;;5009970;28;20203;-83
2021/11/24 04:14:55;;;;;;;8.90;6.27;;;8.10;99.90;;;;;;5008971;28;20202;-82
2021/11/24 04:17:22;;;;;;;9.53;6.67;;;8.10;99.90;;;;;;5009341;28;20196;-83
2021/11/24 04:19:49;;;;;;;10.17;6.60;;;8.20;99.90;;;;;;5009868;28;20227;-81
2021/11/24 04:22:17;;;;;;;9.23;6.37;;;8.20;99.90;;;;;;5008565;28;20207;-81
2021/11/24 04:24:44;;;;;;;8.70;6.43;;;8.20;99.90;;;;;;5008186;28;20507;-81
2021/11/24 04:27:11;;;;;;;10.77;8.50;;;8.20;99.90;;;;;;5027237;28;20629;-78
2021/11/24 04:29:40;;;;;;;9.40;7.17;;;8.10;99.90;;;;;;5010978;28;20219;-80
2021/11/24 04:32:07;;;;;;;9.93;7.60;;;8.10;99.90;;;;;;5007908;28;20350;-78
2021/11/24 04:34:34;;;;;;;13.33;7.90;;;8.10;99.90;;;;;;5008782;28;20226;-78
2021/11/24 04:37:01;;;;;;;14.53;7.83;;;8.10;99.90;;;;;;5006771;28;20223;-80
2021/11/24 04:39:29;;;;;;;12.17;7.97;;;8.10;99.90;;;;;;5008469;28;20227;-79
2021/11/24 04:41:56;;;;;;;10.50;7.43;;;8.20;99.90;;;;;;5008515;28;20588;-78
2021/11/24 04:44:24;;;;;;;11.53;8.03;;;8.20;99.90;;;;;;5025837;28;20219;-82
2021/11/24 04:46:50;;;;;;;12.43;8.30;;;8.10;99.90;;;;;;5027130;28;20766;-79
2021/11/24 04:49:17;;;;;;;12.20;8.80;;;8.10;99.90;;;;;;5026520;28;20299;-80
2021/11/24 04:51:44;;;;;;;11.30;8.10;;;8.20;99.90;;;;;;5019661;28;20254;-80
2021/11/24 04:54:11;;;;;;;7.90;7.10;;;8.10;99.90;;;;;;5008303;28;20191;-82
2021/11/24 04:56:40;;;;;;;9.93;8.90;;;8.10;99.90;;;;;;5008819;28;20293;-79
2021/11/24 04:59:07;;;;;;;11.80;7.67;;;8.10;99.90;;;;;;5008804;28;20211;-78
2021/11/24 05:01:34;;;;;;;10.40;7.43;;;8.10;99.90;;;;;;5009811;28;20223;-82
2021/11/24 05:04:00;;;;;;;11.20;9.13;;;8.10;99.90;;;;;;5009719;28;20203;-84
2021/11/24 05:06:27;;;;;;;9.13;7.93;;;8.10;99.90;;;;;;5028738;22;20242;-81
2021/11/24 05:08:54;;;;;;;9.33;7.60;;;8.20;99.90;;;;;;5028457;28;20637;-80
2021/11/24 05:11:21;;;;;;;11.57;8.23;;;8.10;99.90;;;;;;5027424;28;20205;-81
2021/11/24 05:13:52;;;;;;;11.60;7.73;;;8.10;99.90;;;;;;5027800;28;20205;-80
2021/11/24 05:16:21;;;;;;;10.37;8.80;;;8.10;99.90;;;;;;5027412;28;20204;-79
2021/11/24 05:18:49;;;;;;;12.00;9.43;;;8.20;99.90;;;;;;5026534;28;20202;-78
2021/11/24 05:21:21;;;;;;;12.87;9.83;;;8.10;99.90;;;;;;5027384;28;20313;-79
2021/11/24 05:23:48;;;;;;;10.63;9.23;;;8.20;99.90;;;;;;5026094;28;20242;-79
2021/11/24 05:26:15;;;;;;;11.57;9.00;;;8.10;99.90;;;;;;5026249;28;20249;-78
2021/11/24 05:28:42;;;;;;;9.87;8.10;;;8.10;99.90;;;;;;5028179;28;20197;-83
2021/11/24 05:31:10;;;;;;;11.37;9.30;;;8.10;99.90;;;;;;5026888;28;20199;-81
2021/11/24 05:33:37;;;;;;;10.07;8.93;;;8.10;99.90;;;;;;5026691;28;20206;-79
2021/11/24 05:36:05;;;;;;;10.20;8.10;;;8.10;99.90;;;;;;5028222;28;20211;-79
2021/11/24 05:38:32;;;;;;;8.13;7.30;;;8.10;99.90;;;;;;5028231;28;20206;-81
2021/11/24 05:40:58;;;;;;;8.90;8.00;;;8.10;99.90;;;;;;5028289;28;20226;-81
2021/11/24 05:43:27;;;;;;;8.80;7.60;;;8.10;99.90;;;;;;5027589;28;20206;-78
2021/11/24 05:46:12;;;;;;;9.67;7.53;;;8.10;99.90;;;;;;5028579;28;20626;-80
2021/11/24 05:48:42;;;;;;;9.27;8.17;;;8.10;99.90;;;;;;5028712;28;20194;-77
2021/11/24 05:51:09;;;;;;;9.13;8.13;;;8.10;99.90;;;;;;5028689;28;20212;-81
2021/11/24 05:53:36;;;;;;;10.27;9.27;;;8.10;99.90;;;;;;5029011;28;20542;-82
2021/11/24 05:56:04;;;;;;;11.03;8.93;;;8.10;99.90;;;;;;5029368;28;20306;-84
2021/11/24 05:58:31;;;;;;;15.53;11.23;;;8.10;99.90;;;;;;5025052;28;20203;-82
2021/11/24 06:00:58;;;;;;;14.77;12.07;;;8.10;99.90;;;;;;5009653;28;20220;-83
2021/11/24 06:03:25;;;;;;;14.93;11.60;;;8.10;99.90;;;;;;5010233;28;20290;-83
2021/11/24 06:05:54;;;;;;;13.77;11.67;;;8.10;99.90;;;;;;5012740;28;20213;-81
2021/11/24 06:08:20;;;;;;;12.90;11.00;;;8.10;99.90;;;;;;5006713;28;20206;-83
2021/11/24 06:10:48;;;;;;;13.23;11.83;;;8.10;99.90;;;;;;5011310;28;20202;-82
2021/11/24 06:13:15;;;;;;;17.60;13.13;;;8.10;99.90;;;;;;5027613;28;20638;-81
2021/11/24 06:15:42;;;;;;;16.67;13.53;;;8.10;99.90;;;;;;5026498;28;20206;-79
2021/11/24 06:18:09;;;;;;;14.30;12.60;;;8.10;99.90;;;;;;5025930;28;20208;-79
2021/11/24 06:20:38;;;;;;;15.67;12.90;;;8.10;99.90;;;;;;5006396;28;20665;-80
2021/11/24 06:23:07;;;;;;;15.47;12.93;;;8.20;99.90;;;;;;4998604;28;20215;-79
2021/11/24 06:25:34;;;;;;;17.13;13.53;;;8.10;99.90;;;;;;5002946;28;20219;-80
2021/11/24 06:28:00;;;;;;;14.13;12.73;;;8.10;99.90;;;;;;5006496;28;20199;-82
2021/11/24 06:30:29;;;;;;;17.93;14.83;;;8.10;99.90;;;;;;5006424;28;20583;-79
2021/11/24 06:32:56;;;;;;;21.40;14.93;;;8.10;99.90;;;;;;5005794;28;20203;-78
2021/11/24 06:35:22;;;;;;;18.50;14.67;;;8.10;99.90;;;;;;5005581;28;20239;-78
2021/11/24 06:37:50;;;;;;;16.90;14.97;;;8.10;99.90;;;;;;5007613;28;20207;-79
2021/11/24 06:40:18;;;;;;;18.00;14.87;;;8.10;99.90;;;;;;5006814;28;20219;-82
2021/11/24 06:42:45;;;;;;;18.10;14.63;;;8.10;99.90;;;;;;4999039;28;20202;-80
2021/11/24 06:45:14;;;;;;;16.67;12.80;;;8.10;99.90;;;;;;5026718;28;20297;-80
2021/11/24 06:47:41;;;;;;;17.00;13.43;;;8.10;99.90;;;;;;4998810;28;20327;-83
2021/11/24 06:50:10;;;;;;;14.63;12.30;;;8.10;99.90;;;;;;4987188;28;20204;-83
2021/11/24 06:52:37;;;;;;;18.37;12.87;;;8.20;99.90;;;;;;4988341;28;20203;-82
2021/11/24 06:55:05;;;;;;;16.57;12.90;;;8.10;99.90;;;;;;4989867;28;20215;-83
2021/11/24 06:57:34;;;;;;;14.77;11.83;;;8.10;99.90;;;;;;5005402;28;20584;-80
2021/11/24 07:00:00;;;;;;;18.13;12.60;;;8.10;99.90;;;;;;5010080;28;20203;-82
2021/11/24 07:02:27;;;;;;;13.70;11.17;;;8.10;99.90;;;;;;5007241;28;20208;-78
2021/11/24 07:04:54;;;;;;;16.50;12.47;;;8.10;99.90;;;;;;4992556;28;20211;-81
2021/11/24 07:07:21;;;;;;;18.60;11.50;;;8.10;99.90;;;;;;4995003;28;20239;-84
2021/11/24 07:09:47;;;;;;;15.27;12.27;;;8.20;99.90;;;;;;4995556;28;20203;-83
2021/11/24 07:12:14;;;;;;;13.23;11.03;;;8.10;99.90;;;;;;4993854;28;20541;-83
2021/11/24 07:14:43;;;;;;;17.10;12.10;;;8.10;99.90;;;;;;5012896;28;20310;-81
2021/11/24 07:17:10;;;;;;;15.70;11.30;;;8.20;99.90;;;;;;5013747;28;20211;-82
2021/11/24 07:19:39;;;;;;;17.20;12.07;;;8.10;99.90;;;;;;5013315;28;20660;-80
2021/11/24 07:22:05;;;;;;;13.17;11.23;;;8.10;99.90;;;;;;5012960;28;20618;-83
2021/11/24 07:24:32;;;;;;;16.30;11.57;;;8.20;99.90;;;;;;5012605;28;20537;-83
2021/11/24 07:26:59;;;;;;;15.77;12.30;;;8.20;99.90;;;;;;5013705;28;20423;-83
2021/11/24 07:29:26;;;;;;;16.17;12.37;;;8.20;99.90;;;;;;5013220;28;20219;-83
2021/11/24 07:31:54;;;;;;;14.77;11.53;;;8.20;99.90;;;;;;5013280;28;20289;-83
2021/11/24 07:34:21;;;;;;;16.20;12.00;;;8.20;99.90;;;;;;5002816;28;20747;-82
2021/11/24 07:36:48;;;;;;;13.93;11.17;;;8.20;99.90;;;;;;4994756;28;20199;-81
2021/11/24 07:39:15;;;;;;;17.73;12.97;;;8.20;99.90;;;;;;4993547;28;20215;-83
2021/11/24 07:41:41;;;;;;;14.07;11.87;;;8.20;99.90;;;;;;5015869;23;20238;-80
2021/11/24 07:44:09;;;;;;;14.20;9.57;;;8.20;99.90;;;;;;5033191;28;20208;-79
2021/11/24 07:46:36;;;;;;;15.10;11.33;;;8.20;99.90;;;;;;5031667;28;20202;-81
2021/11/24 07:49:04;;;;;;;13.83;12.30;;;8.20;99.90;;;;;;5033305;28;20198;-83
2021/11/24 07:51:31;;;;;;;16.70;13.20;;;8.30;99.90;;;;;;5030587;28;20222;-78
2021/11/24 07:53:58;;;;;;;19.23;13.80;;;8.20;99.90;;;;;;5030713;28;20195;-80
2021/11/24 07:56:25;;;;;;;17.60;12.57;;;8.20;99.90;;;;;;5030929;28;20323;-78
2021/11/24 07:58:54;;;;;;;14.57;12.23;;;8.30;99.90;;;;;;5030980;28;20206;-79
2021/11/24 08:01:21;;;;;;;18.30;13.70;;;8.20;99.90;;;;;;5031181;28;20272;-80
2021/11/24 08:03:47;;;;;;;17.23;13.23;;;8.30;99.90;;;;;;5031772;28;20210;-81
2021/11/24 08:06:16;;;;;;;17.50;13.57;;;8.20;99.90;;;;;;5031098;28;20213;-83
2021/11/24 08:08:53;;;;;;;20.30;15.13;;;8.30;99.90;;;;;;5012669;28;20514;-77
2021/11/24 08:11:19;;;;;;;17.57;14.77;;;8.30;99.90;;;;;;5029425;28;20195;-81
2021/11/24 08:13:47;;;;;;;23.27;16.23;;;8.30;99.90;;;;;;5028551;28;20198;-80
2021/11/24 08:16:14;;;;;;;22.90;17.00;;;8.30;99.90;;;;;;5028434;28;20694;-79
2021/11/24 08:18:41;;;;;;;22.07;16.70;;;8.30;99.90;;;;;;5028707;28;20285;-79
2021/11/24 08:21:08;;;;;;;24.60;16.80;;;8.30;99.90;;;;;;5028805;28;20225;-81
2021/11/24 08:23:36;;;;;;;22.63;16.50;;;8.30;99.90;;;;;;5029121;28;20213;-77
2021/11/24 09:29:02;;;;;;;28.70;21.47;;;9.00;99.90;;;;;;5707626;23;20256;-80
2021/11/24 09:31:29;;;;;;;28.10;20.23;;;9.00;99.90;;;;;;5025313;28;20504;-77
2021/11/24 09:33:56;;;;;;;25.23;19.97;;;9.10;99.90;;;;;;5032376;28;20798;-78
2021/11/24 09:36:23;;;;;;;28.00;19.93;;;9.10;99.90;;;;;;5032508;28;20702;-78
2021/11/24 09:38:50;;;;;;;24.67;19.17;;;9.10;99.90;;;;;;5026927;28;20221;-79
2021/11/24 09:41:20;;;;;;;22.93;18.33;;;9.10;99.90;;;;;;5035570;28;20222;-81
2021/11/24 09:43:49;;;;;;;25.13;18.87;;;9.10;99.90;;;;;;5023902;28;20211;-81
2021/11/24 09:46:18;;;;;;;29.10;18.70;;;9.10;99.90;;;;;;5023646;28;20234;-79
2021/11/24 09:48:46;;;;;;;24.60;17.47;;;9.20;99.90;;;;;;5006831;28;20291;-79
2021/11/24 09:51:14;;;;;;;22.90;16.63;;;9.20;99.90;;;;;;5007748;28;20203;-80
2021/11/24 09:53:44;;;;;;;21.03;17.53;;;9.20;99.90;;;;;;5006992;28;20208;-80
2021/11/24 09:56:11;;;;;;;20.80;16.10;;;9.20;99.90;;;;;;5007092;28;20218;-81
2021/11/24 09:58:37;;;;;;;21.63;17.17;;;9.20;99.90;;;;;;5007927;28;20206;-80
2021/11/24 10:01:04;;;;;;;19.23;15.10;;;9.20;99.90;;;;;;5007593;28;20226;-80
2021/11/24 10:03:33;;;;;;;22.40;15.80;;;9.30;99.90;;;;;;5007217;28;20207;-80
2021/11/24 10:06:01;;;;;;;19.97;14.70;;;9.30;99.90;;;;;;5005840;28;20207;-81
2021/11/24 10:08:31;;;;;;;16.23;13.87;;;9.30;99.90;;;;;;5004881;28;20273;-82
2021/11/24 10:10:58;;;;;;;16.10;12.97;;;9.30;99.90;;;;;;5006909;28;20203;-82
2021/11/24 10:13:26;;;;;;;17.10;14.20;;;9.40;99.90;;;;;;5007885;28;20199;-81
2021/11/24 10:15:55;;;;;;;21.77;14.07;;;9.40;99.90;;;;;;5006600;28;20295;-81
2021/11/24 10:18:23;;;;;;;16.47;12.03;;;9.40;99.90;;;;;;5005679;28;20207;-80
2021/11/24 10:20:55;;;;;;;14.47;10.97;;;9.40;99.90;;;;;;5007480;28;20223;-79
2021/11/24 10:23:32;;;;;;;15.87;12.00;;;9.50;99.90;;;;;;5006657;28;20600;-80
2021/11/24 10:26:33;;;;;;;17.93;12.60;;;9.50;99.90;;;;;;5008184;28;20203;-80
2021/11/24 10:29:05;;;;;;;17.73;13.30;;;9.50;99.90;;;;;;4946568;29;20676;-80
2021/11/24 10:31:36;;;;;;;16.20;12.17;;;9.50;99.90;;;;;;4928546;29;20210;-80
2021/11/24 10:34:13;;;;;;;16.60;12.97;;;9.50;99.90;;;;;;4955718;28;20537;-81
2021/11/24 10:37:00;;;;;;;14.87;11.77;;;9.60;99.90;;;;;;4988165;28;20224;-80
2021/11/24 10:39:30;;;;;;;18.07;13.33;;;9.60;99.90;;;;;;4997327;28;20543;-78
2021/11/24 10:42:04;;;;;;;13.43;11.67;;;9.60;99.90;;;;;;5003889;28;20277;-80
2021/11/24 10:44:34;;;;;;;17.30;11.73;;;9.60;99.90;;;;;;5005640;28;20485;-80
2021/11/24 10:47:03;;;;;;;13.73;10.43;;;9.60;99.90;;;;;;4994347;28;20231;-81
2021/11/24 10:49:36;;;;;;;15.00;11.23;;;9.70;99.90;;;;;;5007289;28;20211;-78
2021/11/24 10:52:20;;;;;;;15.43;11.70;;;9.70;99.90;;;;;;5006805;28;20211;-79
2021/11/24 10:55:01;;;;;;;13.83;11.07;;;9.70;99.90;;;;;;5007150;28;20195;-78
2021/11/24 10:57:29;;;;;;;11.63;9.53;;;9.70;99.90;;;;;;5005279;28;20203;-77
2021/11/24 11:00:02;;;;;;;11.50;9.13;;;9.70;99.90;;;;;;5004122;28;20592;-79
2021/11/24 11:02:32;;;;;;;12.50;9.83;;;9.80;99.90;;;;;;5003079;28;20975;-79
2021/11/24 11:05:09;;;;;;;11.67;8.93;;;9.80;99.90;;;;;;5005639;28;20202;-79
2021/11/24 11:07:39;;;;;;;9.93;8.53;;;9.80;99.90;;;;;;5003910;28;20207;-77
2021/11/24 11:10:15;;;;;;;10.70;8.27;;;9.90;99.90;;;;;;5004647;28;20222;-78
2021/11/24 11:12:44;;;;;;;10.30;8.50;;;9.90;99.90;;;;;;5005458;28;20253;-82
2021/11/24 11:15:13;;;;;;;9.93;8.60;;;9.90;99.90;;;;;;5005998;28;20207;-82
2021/11/24 11:17:53;;;;;;;11.07;8.97;;;9.90;99.90;;;;;;4985623;28;20592;-78
2021/11/24 11:20:20;;;;;;;12.70;8.80;;;9.90;99.90;;;;;;5000972;28;20544;-78
2021/11/24 11:22:53;;;;;;;10.23;8.20;;;9.90;99.90;;;;;;5003535;28;20698;-78
2021/11/24 11:25:20;;;;;;;12.07;9.43;;;9.90;99.90;;;;;;5002607;28;20281;-79
2021/11/24 11:27:48;;;;;;;15.20;9.93;;;9.90;99.90;;;;;;5002483;28;20203;-78
2021/11/24 11:30:15;;;;;;;11.70;9.10;;;9.90;99.90;;;;;;5004172;28;20706;-81
2021/11/24 11:32:42;;;;;;;12.97;9.70;;;9.90;99.90;;;;;;5004700;28;20202;-79
2021/11/24 11:35:10;;;;;;;11.70;8.63;;;9.90;99.90;;;;;;5004958;28;20199;-77
2021/11/24 11:37:37;;;;;;;11.17;8.70;;;9.90;99.90;;;;;;5005734;28;20602;-76
2021/11/24 11:40:06;;;;;;;9.63;8.23;;;9.90;99.90;;;;;;5004241;28;20191;-78
2021/11/24 11:42:33;;;;;;;8.23;7.30;;;9.90;99.90;;;;;;5004481;28;20235;-79
2021/11/24 11:45:09;;;;;;;11.33;8.63;;;10.00;99.90;;;;;;5004306;28;20486;-79
2021/11/24 11:47:49;;;;;;;9.40;8.03;;;10.10;99.90;;;;;;5007558;28;20237;-80
2021/11/24 11:50:50;;;;;;;9.17;8.10;;;10.10;99.90;;;;;;5007279;28;20247;-79
2021/11/24 11:53:19;;;;;;;11.63;8.30;;;10.10;99.90;;;;;;4987640;28;20214;-79
2021/11/24 11:56:08;;;;;;;9.63;8.63;;;10.10;99.90;;;;;;5000261;28;20690;-79
2021/11/24 11:58:36;;;;;;;9.93;8.43;;;10.10;99.90;;;;;;5007219;28;20210;-80
2021/11/24 12:01:05;;;;;;;12.23;9.10;;;10.20;99.90;;;;;;5006201;28;20247;-79
2021/11/24 12:03:58;;;;;;;11.13;8.57;;;10.30;99.90;;;;;;5022017;28;20234;-79
2021/11/24 12:06:27;;;;;;;11.73;7.13;;;10.30;99.90;;;;;;5026968;28;20617;-79
2021/11/24 12:09:11;;;;;;;7.87;6.90;;;10.30;99.90;;;;;;5027342;28;20206;-80
2021/11/24 12:12:17;;;;;;;10.53;7.30;;;10.40;99.90;;;;;;5015637;28;20617;-78
2021/11/24 12:15:05;;;;;;;8.63;7.50;;;10.40;99.90;;;;;;5007907;28;20591;-77
2021/11/24 12:17:55;;;;;;;8.13;7.30;;;10.30;99.90;;;;;;5005395;28;20391;-77
2021/11/24 12:20:47;;;;;;;11.47;7.70;;;10.30;99.90;;;;;;5007056;28;20214;-79
2021/11/24 12:23:23;;;;;;;8.47;7.27;;;10.30;99.90;;;;;;5007539;28;20215;-77
2021/11/24 12:25:58;;;;;;;9.60;8.07;;;10.30;99.90;;;;;;5007036;28;20271;-81
2021/11/24 12:28:41;;;;;;;6.73;6.00;;;10.40;99.90;;;;;;5006624;28;20784;-81
2021/11/24 12:31:18;;;;;;;7.77;6.97;;;10.50;99.90;;;;;;5007760;28;20195;-79
2021/11/24 12:33:53;;;;;;;7.53;6.07;;;10.40;99.90;;;;;;5007370;28;20210;-79
2021/11/24 12:36:24;;;;;;;7.83;6.07;;;10.40;99.90;;;;;;5007547;28;20234;-78
2021/11/24 12:38:53;;;;;;;7.10;6.40;;;10.40;99.90;;;;;;5007792;28;20195;-81
2021/11/24 12:41:23;;;;;;;9.87;6.27;;;10.40;99.90;;;;;;5004037;28;20242;-78
2021/11/24 12:43:54;;;;;;;8.80;5.87;;;10.40;99.90;;;;;;5006365;28;20230;-82
2021/11/24 12:46:23;;;;;;;8.87;6.07;;;10.40;99.90;;;;;;5006215;28;20230;-81
2021/11/24 12:48:55;;;;;;;7.03;6.10;;;10.40;99.90;;;;;;5006920;28;20250;-81
2021/11/24 12:51:28;;;;;;;6.93;5.90;;;10.50;99.90;;;;;;5006662;28;20223;-81
2021/11/24 12:54:02;;;;;;;6.93;5.70;;;10.40;99.90;;;;;;5007121;28;20207;-82
2021/11/24 12:56:31;;;;;;;7.90;7.10;;;10.50;99.90;;;;;;5006820;28;20199;-79
2021/11/24 12:59:01;;;;;;;7.03;6.33;;;10.40;99.90;;;;;;5006736;28;20218;-80
2021/11/24 13:01:33;;;;;;;8.43;7.10;;;10.50;99.90;;;;;;5005512;28;20211;-81
2021/11/24 13:04:10;;;;;;;9.70;7.53;;;10.40;99.90;;;;;;5007585;28;20218;-82
2021/11/24 13:06:39;;;;;;;8.53;6.23;;;10.40;99.90;;;;;;5002847;28;20208;-82
2021/11/24 13:09:15;;;;;;;8.90;6.10;;;10.30;99.90;;;;;;4987351;28;20207;-78
2021/11/24 13:11:49;;;;;;;8.77;7.40;;;10.30;99.90;;;;;;4987569;28;20196;-81
2021/11/24 13:14:19;;;;;;;9.47;6.73;;;10.20;99.90;;;;;;4990552;28;20195;-79
2021/11/24 13:16:46;;;;;;;8.67;6.57;;;10.20;99.90;;;;;;5007534;28;20210;-80
2021/11/24 13:19:13;;;;;;;8.17;6.57;;;10.20;99.90;;;;;;5007640;28;20211;-81
2021/11/24 13:21:50;;;;;;;8.30;6.80;;;10.20;99.90;;;;;;5007556;28;20207;-77
2021/11/24 13:24:17;;;;;;;7.17;6.47;;;10.10;99.90;;;;;;5007262;28;20599;-83
2021/11/24 13:26:54;;;;;;;8.20;7.23;;;10.10;99.90;;;;;;5008140;28;20222;-82
2021/11/24 13:29:24;;;;;;;8.57;6.53;;;10.10;99.90;;;;;;5006053;28;20404;-82
2021/11/24 13:31:51;;;;;;;8.93;6.27;;;10.20;99.90;;;;;;5005712;28;20215;-80
2021/11/24 13:34:25;;;;;;;7.00;6.33;;;10.10;99.90;;;;;;5006982;28;20200;-80
2021/11/24 13:36:53;;;;;;;7.67;6.97;;;10.10;99.90;;;;;;5008068;28;20206;-79
2021/11/24 13:39:27;;;;;;;10.20;7.83;;;10.00;99.90;;;;;;5008178;28;20215;-79
2021/11/24 13:42:08;;;;;;;7.33;6.63;;;10.00;99.90;;;;;;5009196;28;20272;-82
2021/11/24 13:44:49;;;;;;;9.03;7.60;;;10.00;99.90;;;;;;5008157;28;20195;-83
2021/11/24 13:47:21;;;;;;;7.87;7.07;;;10.00;99.90;;;;;;4988685;28;20289;-81
2021/11/24 13:49:49;;;;;;;8.40;7.37;;;10.00;99.90;;;;;;4988773;28;20204;-80
2021/11/24 13:52:21;;;;;;;7.67;6.97;;;10.00;99.90;;;;;;5003721;28;20505;-78
2021/11/24 13:54:51;;;;;;;9.03;7.67;;;10.00;99.90;;;;;;5004601;28;20607;-81
2021/11/24 13:57:18;;;;;;;8.80;7.20;;;10.00;99.90;;;;;;5007823;28;20207;-78
2021/11/24 13:59:47;;;;;;;9.43;7.20;;;10.00;99.90;;;;;;5008332;28;20211;-79
2021/11/24 14:02:16;;;;;;;7.97;7.17;;;10.00;99.90;;;;;;5003802;28;20239;-82